Time;durP1;ratioP1;P1;durP2;ratioP2;P2;SDS_P1;SDS_P2;PMS_P1;PMS_P2;Temp;Humidity;BMP_temperature;BMP_pressure;BME280_temperature;BME280_humidity;BME280_pressure;Samples;Min_cycle;Max_cycle;Signal;HPM_P1;HPM_P2
2023/08/18 00:01:36;;;;;;;7.10;5.50;;;;;;;18.17;96.37;96984.89;109171;1269;24202;-75
2023/08/18 00:04:07;;;;;;;9.10;6.30;;;;;;;18.11;95.87;96982.48;109178;1268;22573;-75
2023/08/18 00:06:38;;;;;;;7.70;5.90;;;;;;;17.96;95.68;96982.81;109157;1259;22524;-75
2023/08/18 00:09:10;;;;;;;7.20;5.90;;;;;;;17.82;95.80;96976.63;109241;1269;24138;-75
2023/08/18 00:11:41;;;;;;;7.30;6.50;;;;;;;17.69;95.88;96973.41;109213;1267;25412;-75
2023/08/18 00:14:13;;;;;;;7.60;6.10;;;;;;;17.61;96.34;96974.95;109199;1268;23848;-75
2023/08/18 00:16:44;;;;;;;9.60;6.40;;;;;;;17.58;96.82;96975.02;109157;1269;22522;-75
2023/08/18 00:19:15;;;;;;;8.60;6.80;;;;;;;17.58;97.12;96977.23;109143;1268;22874;-75
2023/08/18 00:21:46;;;;;;;8.00;7.20;;;;;;;17.60;97.34;96978.10;109219;1269;22519;-75
2023/08/18 00:24:17;;;;;;;8.10;7.10;;;;;;;17.64;97.51;96974.10;109186;1268;22511;-75
2023/08/18 00:26:50;;;;;;;8.30;6.90;;;;;;;17.71;97.68;96970.20;109191;1269;22602;-75
2023/08/18 00:29:27;;;;;;;8.30;6.60;;;;;;;17.76;97.62;96967.92;109235;1267;22524;-75
2023/08/18 00:32:02;;;;;;;8.40;6.40;;;;;;;17.81;97.75;96964.31;109162;1269;22655;-75
2023/08/18 00:34:33;;;;;;;7.90;6.10;;;;;;;17.88;97.76;96966.44;109191;1268;22617;-75
2023/08/18 00:37:04;;;;;;;7.60;6.30;;;;;;;17.93;97.64;96963.52;109188;1268;22638;-75
2023/08/18 00:39:35;;;;;;;10.60;6.60;;;;;;;17.97;97.42;96958.85;109142;1268;22963;-75
2023/08/18 00:42:07;;;;;;;8.70;6.80;;;;;;;17.94;97.21;96958.04;109194;1269;23855;-75
2023/08/18 00:44:38;;;;;;;7.40;6.50;;;;;;;17.89;97.19;96957.07;109171;1269;22511;-75
2023/08/18 00:47:09;;;;;;;7.80;7.00;;;;;;;17.85;97.31;96954.59;109167;1268;25351;-75
2023/08/18 00:49:41;;;;;;;9.80;6.90;;;;;;;17.86;97.50;96951.63;109236;1255;22515;-75
2023/08/18 00:52:12;;;;;;;8.50;6.60;;;;;;;17.85;97.51;96949.13;109204;1268;22515;-75
2023/08/18 00:54:43;;;;;;;10.20;7.60;;;;;;;17.81;97.70;96949.90;109166;1267;22556;-75
2023/08/18 00:57:14;;;;;;;9.30;7.70;;;;;;;17.81;97.96;96949.37;109162;1269;22565;-75
2023/08/18 00:59:46;;;;;;;10.70;7.80;;;;;;;17.85;98.24;96950.27;109135;1269;24256;-75
2023/08/18 01:02:18;;;;;;;7.60;6.80;;;;;;;17.92;98.34;96953.75;109186;1268;22568;-75
2023/08/18 01:04:49;;;;;;;10.10;8.10;;;;;;;17.97;98.37;96958.88;109173;1264;22628;-75
2023/08/18 01:07:20;;;;;;;9.20;7.60;;;;;;;18.01;98.35;96958.74;109162;1268;22562;-75
2023/08/18 01:09:51;;;;;;;10.40;8.10;;;;;;;18.04;98.43;96955.23;109197;1268;25278;-75
2023/08/18 01:12:29;;;;;;;8.70;7.90;;;;;;;18.08;98.53;96954.40;109190;1269;22520;-75
2023/08/18 01:15:09;;;;;;;11.40;8.80;;;;;;;18.13;98.47;96951.26;109201;1267;22518;-75
2023/08/18 01:17:48;;;;;;;9.60;8.20;;;;;;;18.15;98.31;96943.92;109192;1268;24288;-75
2023/08/18 01:20:20;;;;;;;9.20;8.20;;;;;;;18.12;98.10;96942.64;109230;1268;22485;-75
2023/08/18 01:22:56;;;;;;;9.20;7.50;;;;;;;18.08;98.12;96942.05;109170;1260;24282;-75
2023/08/18 01:25:28;;;;;;;8.20;7.30;;;;;;;18.08;98.20;96938.90;109196;1269;22525;-75
2023/08/18 01:28:01;;;;;;;9.30;6.90;;;;;;;18.02;98.06;96939.41;109154;1269;22534;-75
2023/08/18 01:30:36;;;;;;;13.60;7.60;;;;;;;17.99;98.04;96937.95;109203;1269;25259;-75
2023/08/18 01:33:14;;;;;;;9.70;7.30;;;;;;;17.90;98.07;96935.58;109165;1269;22523;-75
2023/08/18 01:35:46;;;;;;;8.60;7.50;;;;;;;17.86;98.19;96938.43;109165;1269;25315;-75
2023/08/18 01:38:20;;;;;;;9.00;7.30;;;;;;;17.86;98.51;96943.41;109193;1269;23725;-75
2023/08/18 01:40:53;;;;;;;9.40;7.90;;;;;;;17.90;98.74;96942.55;109173;1267;22525;-75
2023/08/18 01:43:26;;;;;;;10.10;7.90;;;;;;;17.97;98.79;96951.91;109221;1269;22563;-75
2023/08/18 01:45:57;;;;;;;8.70;7.80;;;;;;;18.01;98.80;96953.06;109215;1269;22574;-75
2023/08/18 01:48:28;;;;;;;9.90;7.80;;;;;;;18.00;98.50;96949.66;109063;1270;22522;-75
2023/08/18 01:50:59;;;;;;;10.70;7.90;;;;;;;17.99;98.63;96950.58;109036;1264;25250;-75
2023/08/18 01:53:30;;;;;;;10.50;8.30;;;;;;;17.99;98.62;96943.91;109004;1262;22667;-75
2023/08/18 01:56:03;;;;;;;9.00;7.60;;;;;;;17.98;98.71;96939.53;108974;1270;22508;-75
2023/08/18 01:58:35;;;;;;;8.10;7.10;;;;;;;18.02;98.67;96939.92;109007;1270;22526;-75
2023/08/18 02:01:06;;;;;;;8.00;7.10;;;;;;;18.04;98.55;96939.41;109036;1264;22511;-75
2023/08/18 02:03:37;;;;;;;8.40;7.10;;;;;;;17.97;97.99;96937.80;109015;1270;22650;-75
2023/08/18 02:06:09;;;;;;;8.10;6.90;;;;;;;17.84;97.76;96939.14;109036;1267;22542;-75
2023/08/18 02:08:40;;;;;;;7.90;6.20;;;;;;;17.73;97.98;96934.83;109030;1264;22525;-75
2023/08/18 02:11:11;;;;;;;8.70;6.70;;;;;;;17.63;98.11;96935.46;108993;1270;22515;-75
2023/08/18 02:13:42;;;;;;;9.70;6.50;;;;;;;17.55;98.35;96929.10;109055;1270;22635;-75
2023/08/18 02:16:13;;;;;;;8.10;7.20;;;;;;;17.52;98.66;96931.25;109007;1267;23171;-75
2023/08/18 02:18:44;;;;;;;8.30;7.00;;;;;;;17.51;99.07;96930.37;109037;1270;23267;-75
2023/08/18 02:21:15;;;;;;;8.00;6.90;;;;;;;17.52;99.23;96931.64;109021;1270;22523;-75
2023/08/18 02:23:46;;;;;;;9.60;8.00;;;;;;;17.54;99.47;96934.46;109048;1270;22514;-75
2023/08/18 02:26:17;;;;;;;8.60;7.70;;;;;;;17.58;99.63;96932.98;108987;1267;22526;-75
2023/08/18 02:28:48;;;;;;;8.40;7.50;;;;;;;17.65;99.91;96933.16;109036;1270;22517;-75
2023/08/18 02:31:19;;;;;;;8.20;7.20;;;;;;;17.72;100.00;96929.20;109013;1262;22549;-75
2023/08/18 02:33:50;;;;;;;8.70;7.60;;;;;;;17.78;99.93;96929.33;109067;1270;22526;-75
2023/08/18 02:36:21;;;;;;;8.80;7.40;;;;;;;17.81;99.76;96930.74;108962;1264;25308;-75
2023/08/18 02:38:52;;;;;;;8.70;7.70;;;;;;;17.79;99.46;96929.14;109052;1270;22548;-75
2023/08/18 02:41:24;;;;;;;9.00;6.80;;;;;;;17.73;99.34;96925.27;109062;1270;24509;-75
2023/08/18 02:43:55;;;;;;;9.10;8.00;;;;;;;17.66;99.27;96921.01;109026;1270;23311;-75
2023/08/18 02:46:26;;;;;;;11.60;7.70;;;;;;;17.64;99.59;96921.08;108977;1270;24268;-75
2023/08/18 02:48:57;;;;;;;11.00;8.40;;;;;;;17.66;99.94;96914.83;109032;1264;22517;-75
2023/08/18 02:51:28;;;;;;;9.40;8.40;;;;;;;17.71;99.99;96915.27;108991;1269;22525;-75
2023/08/18 02:53:59;;;;;;;10.40;8.20;;;;;;;17.76;100.00;96910.59;109024;1270;22522;-75
2023/08/18 02:56:32;;;;;;;9.10;8.20;;;;;;;17.78;100.00;96905.86;109015;1270;22522;-75
2023/08/18 02:59:03;;;;;;;10.90;8.50;;;;;;;17.80;100.00;96900.74;109026;1267;22630;-75
2023/08/18 03:01:34;;;;;;;9.80;8.60;;;;;;;17.82;100.00;96904.87;108954;1267;24132;-75
2023/08/18 03:04:07;;;;;;;8.50;7.60;;;;;;;17.84;100.00;96906.95;108996;1270;22519;-75
2023/08/18 03:06:38;;;;;;;9.30;8.10;;;;;;;17.84;100.00;96906.95;108989;1270;22624;-75
2023/08/18 03:09:09;;;;;;;9.40;8.50;;;;;;;17.85;100.00;96902.39;109016;1270;22514;-75
2023/08/18 03:11:40;;;;;;;9.30;8.10;;;;;;;17.88;100.00;96900.77;109050;1270;22594;-75
2023/08/18 03:14:12;;;;;;;10.10;8.30;;;;;;;17.94;100.00;96900.09;109019;1270;22625;-75
2023/08/18 03:16:46;;;;;;;9.60;8.60;;;;;;;17.97;100.00;96902.92;108994;1270;22515;-75
2023/08/18 03:19:18;;;;;;;9.80;8.40;;;;;;;17.99;100.00;96903.92;109069;1270;22537;-75
2023/08/18 03:21:49;;;;;;;8.80;8.00;;;;;;;18.00;100.00;96906.55;109017;1264;23607;-75
2023/08/18 03:24:20;;;;;;;9.60;8.60;;;;;;;17.99;100.00;96910.37;109020;1270;24249;-75
2023/08/18 03:26:51;;;;;;;9.40;8.50;;;;;;;17.99;100.00;96912.27;109002;1269;22510;-75
2023/08/18 03:29:23;;;;;;;8.60;7.20;;;;;;;17.99;100.00;96908.88;109043;1270;25356;-75
2023/08/18 03:31:53;;;;;;;9.10;7.40;;;;;;;17.99;100.00;96911.95;109070;1269;22617;-76
2023/08/18 03:34:25;;;;;;;8.30;6.30;;;;;;;17.97;100.00;96913.02;109020;1257;22580;-75
2023/08/18 03:36:56;;;;;;;6.60;5.60;;;;;;;17.94;100.00;96920.20;109019;1264;22550;-75
2023/08/18 03:39:27;;;;;;;7.90;5.60;;;;;;;17.89;100.00;96925.86;109042;1262;22535;-75
2023/08/18 03:41:58;;;;;;;6.40;5.80;;;;;;;17.84;100.00;96926.95;109060;1270;22518;-75
2023/08/18 03:44:29;;;;;;;6.50;5.90;;;;;;;17.78;100.00;96920.59;109037;1270;22513;-75
2023/08/18 03:47:00;;;;;;;7.80;6.20;;;;;;;17.72;100.00;96920.75;108996;1264;22512;-76
2023/08/18 03:49:31;;;;;;;7.10;6.10;;;;;;;17.70;100.00;96927.05;109037;1270;22521;-75
2023/08/18 03:52:05;;;;;;;7.40;6.60;;;;;;;17.75;100.00;96927.44;108998;1264;22763;-75
2023/08/18 03:54:36;;;;;;;6.20;5.60;;;;;;;17.80;100.00;96928.86;109018;1264;24359;-75
2023/08/18 03:57:09;;;;;;;6.70;6.10;;;;;;;17.84;100.00;96928.78;109051;1270;22514;-75
2023/08/18 03:59:40;;;;;;;6.70;6.10;;;;;;;17.85;100.00;96929.83;109040;1270;22537;-75
2023/08/18 04:02:11;;;;;;;7.10;6.30;;;;;;;17.85;100.00;96929.19;109021;1270;22515;-75
2023/08/18 04:04:42;;;;;;;6.50;5.90;;;;;;;17.85;100.00;96936.41;108831;1270;24216;-75
2023/08/18 04:07:14;;;;;;;7.40;6.50;;;;;;;17.85;100.00;96935.97;109036;1270;22529;-75
2023/08/18 04:09:45;;;;;;;8.80;7.20;;;;;;;17.85;100.00;96935.65;109053;1270;22521;-75
2023/08/18 04:12:15;;;;;;;7.50;6.80;;;;;;;17.91;100.00;96934.76;109007;1270;22511;-75
2023/08/18 04:14:46;;;;;;;8.20;7.30;;;;;;;17.97;100.00;96935.56;109008;1270;22537;-75
2023/08/18 04:17:18;;;;;;;7.90;7.10;;;;;;;18.02;100.00;96937.92;109014;1270;23065;-75
2023/08/18 04:19:49;;;;;;;8.10;7.30;;;;;;;18.06;100.00;96931.98;109068;1262;22549;-75
2023/08/18 04:22:20;;;;;;;8.20;7.30;;;;;;;18.10;100.00;96927.08;108991;1270;22525;-75
2023/08/18 04:24:51;;;;;;;9.10;7.40;;;;;;;18.12;100.00;96931.39;109038;1262;22511;-75
2023/08/18 04:27:23;;;;;;;9.10;6.80;;;;;;;18.14;100.00;96927.07;108984;1267;22654;-75
2023/08/18 04:29:56;;;;;;;8.10;7.30;;;;;;;18.15;100.00;96922.36;109023;1260;22746;-75
2023/08/18 04:32:28;;;;;;;8.40;6.70;;;;;;;18.14;100.00;96915.42;108976;1262;22540;-75
2023/08/18 04:35:01;;;;;;;9.70;7.40;;;;;;;18.14;100.00;96913.05;109050;1270;22535;-75
2023/08/18 04:37:35;;;;;;;8.40;7.60;;;;;;;18.16;100.00;96914.60;109039;1270;22515;-75
2023/08/18 04:40:08;;;;;;;9.70;7.60;;;;;;;18.21;100.00;96910.93;109041;1270;22504;-75
2023/08/18 04:42:40;;;;;;;9.70;8.10;;;;;;;18.27;100.00;96912.98;109053;1269;22615;-75
2023/08/18 04:45:13;;;;;;;9.30;7.00;;;;;;;18.31;100.00;96914.51;109012;1263;22556;-75
2023/08/18 04:47:48;;;;;;;9.20;7.70;;;;;;;18.36;100.00;96913.86;109008;1264;24652;-75
2023/08/18 04:50:21;;;;;;;11.10;7.60;;;;;;;18.47;100.00;96913.42;109004;1270;22530;-75
2023/08/18 04:52:52;;;;;;;8.30;7.00;;;;;;;18.48;100.00;96911.49;109000;1270;22595;-75
2023/08/18 04:55:26;;;;;;;9.40;7.60;;;;;;;18.48;100.00;96909.56;109006;1262;22505;-75
2023/08/18 04:57:58;;;;;;;8.40;7.30;;;;;;;18.54;100.00;96908.64;108960;1270;24353;-75
2023/08/18 05:00:31;;;;;;;8.50;7.00;;;;;;;18.57;100.00;96911.19;109006;1270;22516;-75
2023/08/18 05:03:03;;;;;;;8.10;7.30;;;;;;;18.60;100.00;96913.08;108964;1270;25465;-75
2023/08/18 05:05:39;;;;;;;7.30;6.60;;;;;;;18.66;99.98;96913.11;109079;1259;22521;-75
2023/08/18 05:08:10;;;;;;;8.10;7.20;;;;;;;18.90;100.00;96910.91;108958;1263;24289;-75
2023/08/18 05:10:41;;;;;;;9.00;6.90;;;;;;;19.06;99.97;96906.15;108999;1263;22520;-75
2023/08/18 05:13:13;;;;;;;10.20;7.60;;;;;;;19.16;99.85;96904.38;108966;1263;22511;-75
2023/08/18 05:15:44;;;;;;;7.90;6.90;;;;;;;19.66;100.00;96901.65;109030;1270;22522;-75
2023/08/18 05:18:15;;;;;;;7.10;6.20;;;;;;;20.40;100.00;96903.92;109009;1262;22537;-75
2023/08/18 05:20:47;;;;;;;8.30;6.00;;;;;;;21.29;100.00;96901.59;108997;1262;22530;-76
2023/08/18 05:23:19;;;;;;;7.40;5.80;;;;;;;21.95;100.00;96904.80;109036;1270;23084;-76
2023/08/18 05:25:54;;;;;;;7.00;5.50;;;;;;;22.54;99.98;96902.27;109068;1270;22530;-75
2023/08/18 05:28:28;;;;;;;6.40;5.60;;;;;;;23.18;97.83;96904.34;109022;1262;22526;-75
2023/08/18 05:31:00;;;;;;;7.40;5.40;;;;;;;23.36;94.07;96905.90;108991;1270;25350;-75
2023/08/18 05:33:31;;;;;;;5.70;5.10;;;;;;;23.60;92.76;96902.26;108988;1270;25342;-76
2023/08/18 05:36:05;;;;;;;6.00;5.10;;;;;;;23.85;91.23;96903.14;109006;1263;22532;-76
2023/08/18 05:38:38;;;;;;;5.70;5.10;;;;;;;24.09;89.15;96904.08;109201;1269;22513;-75
2023/08/18 05:41:13;;;;;;;5.90;5.30;;;;;;;24.03;86.72;96902.27;109257;1262;22514;-75
2023/08/18 05:43:44;;;;;;;8.80;5.40;;;;;;;23.93;85.76;96900.38;109313;1265;22537;-75
2023/08/18 05:46:16;;;;;;;5.90;5.20;;;;;;;23.87;84.81;96900.41;109205;1269;23344;-76
2023/08/18 05:48:47;;;;;;;5.10;4.70;;;;;;;23.74;83.95;96904.73;109248;1269;22565;-76
2023/08/18 05:51:19;;;;;;;6.70;4.80;;;;;;;23.43;83.03;96906.50;109261;1269;25336;-76
2023/08/18 05:53:50;;;;;;;5.70;4.90;;;;;;;23.04;82.89;96905.73;109294;1261;22529;-76
2023/08/18 05:56:21;;;;;;;9.70;5.40;;;;;;;22.67;82.91;96907.83;109222;1269;22529;-76
2023/08/18 05:58:53;;;;;;;6.60;4.80;;;;;;;22.32;82.96;96913.91;109187;1262;22514;-76
2023/08/18 06:01:25;;;;;;;5.70;5.10;;;;;;;21.97;83.18;96914.64;109247;1269;22522;-76
2023/08/18 06:03:56;;;;;;;5.70;5.10;;;;;;;21.63;83.63;96915.09;109271;1269;22550;-76
2023/08/18 06:06:27;;;;;;;6.50;5.60;;;;;;;21.42;84.50;96915.41;109223;1269;22534;-76
2023/08/18 06:09:00;;;;;;;5.80;5.20;;;;;;;21.60;85.95;96914.08;109239;1267;22646;-76
2023/08/18 06:11:32;;;;;;;7.90;5.40;;;;;;;21.71;85.77;96917.87;109263;1265;22541;-76
2023/08/18 06:14:03;;;;;;;6.20;5.60;;;;;;;21.78;85.19;96918.60;109258;1262;24356;-76
2023/08/18 06:16:34;;;;;;;6.10;5.30;;;;;;;21.71;84.97;96917.88;109176;1265;22530;-76
2023/08/18 06:19:05;;;;;;;6.50;5.80;;;;;;;21.69;85.14;96923.19;109236;1269;22546;-76
2023/08/18 06:21:37;;;;;;;7.70;5.70;;;;;;;21.75;85.26;96921.61;109230;1269;22510;-76
2023/08/18 06:24:09;;;;;;;6.50;5.90;;;;;;;21.96;85.92;96927.98;109257;1269;22544;-76
2023/08/18 06:26:41;;;;;;;5.90;5.30;;;;;;;22.20;85.70;96924.48;109152;1269;22522;-75
2023/08/18 06:29:13;;;;;;;7.70;6.20;;;;;;;22.38;85.44;96926.89;109282;1269;24396;-75
2023/08/18 06:31:45;;;;;;;9.40;6.20;;;;;;;22.36;84.87;96925.52;109151;1269;22538;-76
2023/08/18 06:34:16;;;;;;;6.00;5.40;;;;;;;22.61;85.75;96927.14;109203;1253;22522;-75
2023/08/18 06:36:47;;;;;;;7.70;5.80;;;;;;;23.12;85.38;96929.33;109211;1269;22521;-75
2023/08/18 06:39:18;;;;;;;6.80;5.50;;;;;;;23.51;84.98;96929.27;109322;1269;22554;-75
2023/08/18 06:41:49;;;;;;;8.20;5.40;;;;;;;24.04;84.85;96924.58;109201;1269;22526;-76
2023/08/18 06:44:21;;;;;;;7.00;5.40;;;;;;;24.61;84.22;96924.30;109238;1269;22541;-75
2023/08/18 06:46:52;;;;;;;6.40;5.80;;;;;;;25.15;83.45;96918.90;109203;1265;22540;-76
2023/08/18 06:49:23;;;;;;;5.40;4.90;;;;;;;25.64;82.52;96918.59;109201;1269;22530;-75
2023/08/18 06:51:55;;;;;;;6.10;5.10;;;;;;;26.00;80.95;96924.24;109255;1263;23989;-75
2023/08/18 06:54:26;;;;;;;5.60;4.50;;;;;;;26.24;79.28;96924.36;109247;1269;22537;-75
2023/08/18 06:56:58;;;;;;;5.30;4.80;;;;;;;26.40;77.63;96920.98;109290;1262;22522;-76
2023/08/18 06:59:30;;;;;;;7.30;5.10;;;;;;;26.48;77.07;96921.13;109267;1263;22518;-74
2023/08/18 07:02:02;;;;;;;5.30;4.80;;;;;;;26.78;75.97;96926.29;109282;1269;24276;-74
2023/08/18 07:04:34;;;;;;;5.10;4.60;;;;;;;26.95;75.23;96918.89;109268;1269;25382;-75
2023/08/18 07:07:05;;;;;;;5.80;5.20;;;;;;;27.19;74.68;96922.81;109268;1262;24907;-76
2023/08/18 07:09:36;;;;;;;7.60;4.90;;;;;;;27.41;73.45;96923.64;109303;1262;24344;-77
2023/08/18 07:12:09;;;;;;;5.60;5.10;;;;;;;27.39;72.45;96920.60;109299;1264;22522;-76
2023/08/18 07:14:41;;;;;;;5.40;4.90;;;;;;;27.48;72.23;96920.27;109286;1268;25335;-76
2023/08/18 07:17:12;;;;;;;6.60;5.60;;;;;;;27.40;70.96;96922.02;109287;1262;22520;-77
2023/08/18 07:19:43;;;;;;;6.30;5.20;;;;;;;27.05;70.81;96921.33;109284;1265;24001;-77
2023/08/18 07:22:15;;;;;;;6.10;5.30;;;;;;;27.08;70.86;96924.69;109398;1268;24212;-77
2023/08/18 07:24:47;;;;;;;7.50;5.00;;;;;;;27.01;70.94;96923.54;109273;1268;22532;-77
2023/08/18 07:27:18;;;;;;;7.40;5.40;;;;;;;26.92;70.31;96927.17;109293;1259;23039;-77
2023/08/18 07:29:49;;;;;;;5.80;4.70;;;;;;;26.71;70.82;96928.09;109417;1265;25056;-77
2023/08/18 07:32:25;;;;;;;5.50;5.00;;;;;;;26.69;70.80;96928.30;109296;1265;24163;-77
2023/08/18 07:34:58;;;;;;;6.10;5.30;;;;;;;26.88;70.96;96926.77;109374;1262;22971;-77
2023/08/18 07:37:29;;;;;;;5.50;5.00;;;;;;;27.06;71.19;96924.89;109339;1254;22543;-77
2023/08/18 07:40:00;;;;;;;6.20;5.20;;;;;;;27.12;70.51;96925.17;109323;1262;24186;-77
2023/08/18 07:42:32;;;;;;;5.90;5.10;;;;;;;26.84;69.33;96930.69;109357;1268;22530;-77
2023/08/18 07:45:05;;;;;;;8.60;6.30;;;;;;;26.73;69.69;96933.54;109251;1268;25076;-77
2023/08/18 07:47:37;;;;;;;6.90;5.30;;;;;;;26.79;70.05;96929.33;109374;1264;23715;-77
2023/08/18 07:50:11;;;;;;;8.20;5.90;;;;;;;26.84;69.86;96932.23;109357;1268;22536;-76
2023/08/18 07:52:42;;;;;;;6.30;5.60;;;;;;;26.84;69.50;96930.13;109395;1265;22691;-77
2023/08/18 07:55:14;;;;;;;6.70;5.50;;;;;;;26.60;69.57;96931.19;109327;1262;22509;-77
2023/08/18 07:57:45;;;;;;;6.10;5.50;;;;;;;26.56;69.85;96933.63;109348;1268;24239;-77
2023/08/18 08:00:18;;;;;;;7.00;5.30;;;;;;;26.55;70.28;96935.02;109314;1247;22504;-76
2023/08/18 08:02:51;;;;;;;5.40;4.90;;;;;;;26.60;70.12;96933.43;109330;1263;22499;-77
2023/08/18 08:05:23;;;;;;;6.70;5.40;;;;;;;26.71;70.26;96935.08;109297;1263;25459;-76
2023/08/18 08:07:54;;;;;;;7.80;5.70;;;;;;;26.55;69.43;96935.10;109339;1262;22608;-76
2023/08/18 08:10:28;;;;;;;8.70;5.60;;;;;;;26.44;70.05;96936.46;109296;1269;25413;-77
2023/08/18 08:13:00;;;;;;;9.30;6.60;;;;;;;26.52;70.32;96934.14;109350;1269;24212;-76
2023/08/18 08:15:32;;;;;;;9.30;6.20;;;;;;;26.75;71.37;96939.86;109330;1265;22531;-77
2023/08/18 08:18:04;;;;;;;6.80;5.80;;;;;;;26.90;70.61;96940.38;109347;1267;22511;-77
2023/08/18 08:20:35;;;;;;;8.90;7.90;;;;;;;26.87;70.05;96941.20;109321;1262;22539;-77
2023/08/18 08:23:07;;;;;;;8.80;6.40;;;;;;;26.92;70.58;96937.67;109375;1269;22516;-77
2023/08/18 08:25:40;;;;;;;7.90;6.10;;;;;;;27.12;70.66;96943.61;109287;1269;22736;-77
2023/08/18 08:28:11;;;;;;;6.20;5.50;;;;;;;27.30;70.26;96939.30;109347;1268;23395;-77
2023/08/18 08:30:44;;;;;;;7.40;5.50;;;;;;;27.44;70.08;96937.90;109348;1268;22540;-77
2023/08/18 08:33:16;;;;;;;7.50;5.40;;;;;;;27.65;70.27;96936.48;109310;1269;22504;-77
2023/08/18 08:35:48;;;;;;;6.10;5.50;;;;;;;27.84;69.39;96933.23;109322;1268;22522;-77
2023/08/18 08:38:20;;;;;;;5.90;5.10;;;;;;;27.98;68.76;96930.72;109291;1268;22557;-77
2023/08/18 08:40:54;;;;;;;7.00;5.70;;;;;;;28.09;68.36;96930.05;109409;1269;24069;-77
2023/08/18 08:43:26;;;;;;;6.30;5.50;;;;;;;28.22;68.03;96926.28;109345;1262;25467;-77
2023/08/18 08:46:01;;;;;;;6.30;5.10;;;;;;;28.33;67.42;96922.67;109321;1269;25506;-77
2023/08/18 08:48:35;;;;;;;7.00;6.40;;;;;;;28.45;67.55;96923.94;109309;1269;22550;-77
2023/08/18 08:51:12;;;;;;;7.70;5.50;;;;;;;28.57;66.84;96923.02;109366;1265;22617;-77
2023/08/18 08:53:56;;;;;;;8.70;5.40;;;;;;;28.66;66.41;96922.71;109013;1268;22883;-77
2023/08/18 08:56:32;;;;;;;6.20;5.60;;;;;;;28.59;65.93;96923.71;109303;1269;22518;-77
2023/08/18 08:59:04;;;;;;;9.10;5.50;;;;;;;28.59;66.28;96926.29;109125;1270;22540;-77
2023/08/18 09:01:38;;;;;;;6.30;5.70;;;;;;;28.61;65.91;96924.42;109116;1262;25412;-77
2023/08/18 09:04:11;;;;;;;7.40;5.70;;;;;;;28.54;65.60;96923.33;108920;1270;22507;-78
2023/08/18 09:06:44;;;;;;;8.40;6.40;;;;;;;28.46;65.21;96926.13;108951;1263;23831;-78
2023/08/18 09:09:18;;;;;;;6.60;5.60;;;;;;;28.37;64.72;96924.55;109379;1262;22525;-78
2023/08/18 09:11:50;;;;;;;5.90;5.30;;;;;;;28.36;65.06;96924.63;109311;1265;22518;-78
2023/08/18 09:14:21;;;;;;;10.40;5.60;;;;;;;28.43;64.82;96921.66;109332;1269;22515;-78
2023/08/18 09:16:54;;;;;;;6.40;5.50;;;;;;;28.47;64.54;96927.92;109301;1268;22504;-78
2023/08/18 09:19:28;;;;;;;6.70;5.70;;;;;;;28.49;64.51;96920.45;109372;1268;26495;-78
2023/08/18 09:22:02;;;;;;;6.80;6.00;;;;;;;28.54;64.37;96923.33;109238;1265;22613;-78
2023/08/18 09:24:34;;;;;;;10.40;5.30;;;;;;;28.58;63.83;96928.25;109331;1259;23933;-78
2023/08/18 09:27:10;;;;;;;8.30;5.40;;;;;;;28.61;63.58;96924.12;109292;1269;24239;-78
2023/08/18 09:29:42;;;;;;;5.30;4.70;;;;;;;28.60;62.79;96927.39;109332;1268;24794;-78
2023/08/18 09:32:14;;;;;;;5.60;5.00;;;;;;;28.14;61.19;96927.50;109301;1263;23746;-77
2023/08/18 09:34:46;;;;;;;6.20;5.00;;;;;;;27.92;61.63;96929.77;109354;1268;24206;-77
2023/08/18 09:37:20;;;;;;;6.10;5.20;;;;;;;28.05;61.76;96928.41;109258;1268;22511;-77
2023/08/18 09:39:54;;;;;;;7.70;5.00;;;;;;;28.15;61.72;96922.66;109312;1268;23810;-78
2023/08/18 09:42:27;;;;;;;8.40;5.30;;;;;;;28.15;61.48;96929.67;109325;1269;23788;-80
2023/08/18 09:45:01;;;;;;;8.20;5.20;;;;;;;28.17;61.40;96932.58;109376;1268;24226;-80
2023/08/18 09:47:38;;;;;;;6.80;6.10;;;;;;;28.09;60.90;96931.23;109351;1268;27772;-77
2023/08/18 09:50:16;;;;;;;7.70;6.50;;;;;;;28.14;62.45;96932.71;109263;1263;24283;-76
2023/08/18 09:52:52;;;;;;;7.30;5.80;;;;;;;28.22;63.28;96930.72;109286;1268;25989;-79
2023/08/18 09:55:30;;;;;;;8.50;6.20;;;;;;;28.27;63.85;96926.23;109317;1268;22508;-79
2023/08/18 09:58:09;;;;;;;7.10;6.40;;;;;;;28.27;63.95;96930.91;109353;1269;22544;-80
2023/08/18 10:00:45;;;;;;;7.50;6.30;;;;;;;28.30;64.23;96932.10;109261;1266;22573;-80
2023/08/18 10:03:19;;;;;;;8.00;6.70;;;;;;;28.21;64.22;96934.70;109321;1269;22527;-77
2023/08/18 10:05:52;;;;;;;7.50;6.70;;;;;;;28.24;65.32;96937.04;109328;1262;22641;-77
2023/08/18 10:08:24;;;;;;;7.40;6.60;;;;;;;28.28;64.51;96938.08;109276;1263;22515;-77
2023/08/18 10:10:56;;;;;;;7.90;6.50;;;;;;;28.22;64.88;96942.87;109394;1269;23734;-77
2023/08/18 10:13:30;;;;;;;7.50;6.50;;;;;;;28.29;66.12;96938.24;109322;1263;26939;-77
2023/08/18 10:16:02;;;;;;;7.10;6.40;;;;;;;28.43;65.83;96938.89;109317;1269;22565;-77
2023/08/18 10:18:35;;;;;;;7.70;6.40;;;;;;;28.50;65.58;96935.55;109117;1260;22700;-77
2023/08/18 10:21:10;;;;;;;7.40;6.20;;;;;;;28.58;65.95;96935.48;109083;1270;23995;-77
2023/08/18 10:23:46;;;;;;;8.20;6.50;;;;;;;28.63;65.62;96933.08;109114;1269;22539;-77
2023/08/18 10:26:17;;;;;;;7.00;6.30;;;;;;;28.62;65.18;96936.05;109100;1270;24210;-77
2023/08/18 10:28:49;;;;;;;8.60;6.90;;;;;;;28.58;65.56;96937.61;109132;1270;23952;-77
2023/08/18 10:31:23;;;;;;;7.10;6.40;;;;;;;28.60;65.82;96938.39;109123;1262;25133;-77
2023/08/18 10:33:55;;;;;;;8.40;6.30;;;;;;;28.61;65.80;96944.01;109082;1269;22521;-76
2023/08/18 10:36:29;;;;;;;7.00;6.00;;;;;;;28.64;65.89;96941.96;109097;1270;22724;-76
2023/08/18 10:39:32;;;;;;;9.30;6.30;;;;;;;28.64;65.48;96943.06;109038;1248;22528;-77
2023/08/18 10:42:14;;;;;;;9.20;6.50;;;;;;;28.58;64.98;96939.08;108999;1270;22773;-77
2023/08/18 10:45:03;;;;;;;7.10;6.40;;;;;;;28.46;64.48;96934.85;109066;1264;25419;-77
2023/08/18 10:47:36;;;;;;;8.60;6.80;;;;;;;28.40;64.69;96937.79;108989;1270;22517;-77
2023/08/18 10:50:12;;;;;;;7.40;5.70;;;;;;;28.29;63.88;96936.05;109044;1266;22762;-77
2023/08/18 10:52:44;;;;;;;6.90;6.20;;;;;;;28.08;63.73;96933.71;109002;1267;24300;-77
2023/08/18 10:55:15;;;;;;;9.90;6.60;;;;;;;27.98;64.08;96934.45;109017;1264;22524;-77
2023/08/18 10:57:48;;;;;;;6.40;5.80;;;;;;;27.94;64.66;96932.80;108998;1264;22988;-78
2023/08/18 11:00:20;;;;;;;8.20;6.60;;;;;;;28.04;64.59;96930.52;108974;1271;22511;-78
2023/08/18 11:02:53;;;;;;;7.00;6.30;;;;;;;28.08;64.47;96930.98;109047;1270;22506;-78
2023/08/18 11:05:27;;;;;;;8.60;6.40;;;;;;;27.99;63.80;96926.13;109004;1265;26474;-78
2023/08/18 11:07:59;;;;;;;9.10;6.70;;;;;;;27.96;64.77;96926.27;108978;1270;23230;-83
2023/08/18 11:10:32;;;;;;;6.80;6.10;;;;;;;28.06;65.24;96924.14;108981;1270;22514;-86
2023/08/18 11:13:03;;;;;;;7.90;6.10;;;;;;;28.12;64.69;96924.14;109007;1267;25221;-87
2023/08/18 11:15:35;;;;;;;7.40;6.70;;;;;;;27.99;64.42;96923.33;108987;1267;22518;-86
2023/08/18 11:18:07;;;;;;;8.10;6.60;;;;;;;27.90;64.78;96926.02;108953;1267;25960;-86
2023/08/18 11:20:42;;;;;;;7.50;6.20;;;;;;;27.86;65.12;96924.98;109013;1270;22534;-86
2023/08/18 11:23:14;;;;;;;8.60;6.60;;;;;;;27.94;65.09;96927.44;108950;1270;22570;-86
2023/08/18 11:25:46;;;;;;;8.10;6.50;;;;;;;27.94;64.63;96927.73;108946;1264;23914;-86
2023/08/18 11:28:18;;;;;;;10.10;6.90;;;;;;;27.93;65.00;96921.75;109057;1270;22620;-86
2023/08/18 11:30:49;;;;;;;9.80;6.80;;;;;;;27.94;64.72;96925.41;109013;1270;24197;-85
2023/08/18 11:33:22;;;;;;;6.80;6.10;;;;;;;27.88;64.27;96925.70;108991;1267;22511;-86
2023/08/18 11:35:54;;;;;;;7.40;6.50;;;;;;;27.81;64.11;96924.89;108965;1264;24213;-86
2023/08/18 11:38:26;;;;;;;7.10;6.30;;;;;;;27.75;64.08;96926.74;109105;1270;22568;-86
2023/08/18 11:40:59;;;;;;;11.30;6.70;;;;;;;27.74;64.48;96922.06;109188;1270;22507;-86
2023/08/18 11:43:31;;;;;;;9.50;6.80;;;;;;;27.77;64.52;96917.02;109120;1262;22532;-86
2023/08/18 11:46:02;;;;;;;6.50;5.80;;;;;;;27.77;64.48;96918.58;109107;1267;23068;-86